Time;durP1;ratioP1;P1;durP2;ratioP2;P2;SDS_P1;SDS_P2;PMS_P1;PMS_P2;Temp;Humidity;BMP_temperature;BMP_pressure;BME280_temperature;BME280_humidity;BME280_pressure;Samples;Min_cycle;Max_cycle;Signal;HPM_P1;HPM_P2
2022/11/11 00:00:30;;;;;;;29.40;25.17;;;;;;;13.67;100.00;102657.84;2069103;28;20452;-67
2022/11/11 00:01:30;;;;;;;28.77;24.47;;;;;;;13.66;100.00;102656.28;2069002;28;20663;-67
2022/11/11 00:02:30;;;;;;;29.40;24.03;;;;;;;13.73;100.00;102658.25;2068786;28;20182;-67
2022/11/11 00:03:31;;;;;;;28.00;24.83;;;;;;;13.75;100.00;102665.00;2069890;28;20217;-67
2022/11/11 00:04:31;;;;;;;28.83;24.33;;;;;;;13.80;100.00;102661.78;2070193;28;20191;-67
2022/11/11 00:05:33;;;;;;;27.07;24.03;;;;;;;13.07;100.00;102543.13;2069707;28;20690;-67
2022/11/11 00:06:33;;;;;;;33.60;25.57;;;;;;;13.83;100.00;102655.38;2068957;28;20187;-67
2022/11/11 00:07:34;;;;;;;29.37;24.83;;;;;;;13.81;100.00;102657.00;2069489;28;20448;-67
2022/11/11 00:08:34;;;;;;;28.80;24.17;;;;;;;13.79;100.00;102659.41;2068616;28;20196;-67
2022/11/11 00:09:35;;;;;;;29.60;24.90;;;;;;;13.80;100.00;102659.00;2071029;28;20223;-67
2022/11/11 00:10:35;;;;;;;28.20;24.50;;;;;;;13.90;100.00;102660.94;2069690;28;20177;-67
2022/11/11 00:11:36;;;;;;;29.27;24.30;;;;;;;13.99;100.00;102657.72;2067662;28;20200;-67
2022/11/11 00:12:37;;;;;;;29.43;23.80;;;;;;;14.03;100.00;102661.28;2068045;28;20223;-67
2022/11/11 00:13:38;;;;;;;29.20;25.50;;;;;;;12.89;100.00;102475.56;2068634;28;20459;-67
2022/11/11 00:14:39;;;;;;;27.67;23.47;;;;;;;14.00;100.00;102648.94;2069216;28;20186;-67
2022/11/11 00:15:39;;;;;;;26.93;23.73;;;;;;;14.09;100.00;102652.06;2071177;28;20435;-67
2022/11/11 00:26:01;;;;;;;25.97;22.10;;;;;;;14.34;100.00;102641.56;2069539;28;20444;-67
2022/11/11 00:27:02;;;;;;;25.03;21.43;;;;;;;14.32;100.00;102634.81;2068844;28;20459;-67
2022/11/11 00:28:02;;;;;;;26.60;21.77;;;;;;;14.39;100.00;102640.34;2069596;28;20177;-67
2022/11/11 00:29:02;;;;;;;25.07;21.77;;;;;;;14.43;100.00;102627.94;2071183;28;20192;-68
2022/11/11 00:30:03;;;;;;;27.00;21.90;;;;;;;14.46;100.00;102634.69;2069304;28;20190;-67
2022/11/11 00:31:09;;;;;;;24.10;20.60;;;;;;;14.05;100.00;102578.00;2069070;28;20280;-67
2022/11/11 00:32:21;;;;;;;26.30;22.23;;;;;;;14.54;100.00;102637.03;2068572;28;20383;-68
2022/11/11 00:33:22;;;;;;;25.47;21.23;;;;;;;13.96;100.00;102533.06;2068727;28;20493;-67
2022/11/11 00:34:22;;;;;;;26.37;20.47;;;;;;;14.57;100.00;102639.00;2068998;28;20502;-68
2022/11/11 00:36:42;;;;;;;23.13;20.60;;;;;;;14.59;100.00;102641.34;2070624;28;20209;-68
2022/11/11 00:37:44;;;;;;;23.27;20.03;;;;;;;14.61;100.00;102633.38;2070219;28;20915;-67
2022/11/11 00:38:44;;;;;;;25.60;20.63;;;;;;;14.63;100.00;102633.75;2072916;28;20580;-68
2022/11/11 00:39:45;;;;;;;23.83;20.23;;;;;;;14.73;100.00;102642.03;2070695;28;20587;-68
2022/11/11 00:40:45;;;;;;;24.17;20.33;;;;;;;14.76;100.00;102640.44;2070611;28;20488;-67
2022/11/11 00:41:46;;;;;;;24.73;20.53;;;;;;;14.82;100.00;102633.19;2070568;28;20228;-68
2022/11/11 00:42:46;;;;;;;23.77;20.07;;;;;;;14.93;100.00;102634.69;2069675;28;20608;-67
2022/11/11 00:43:47;;;;;;;24.63;20.40;;;;;;;14.87;100.00;102624.38;2070397;28;20241;-67
2022/11/11 00:44:47;;;;;;;24.77;19.10;;;;;;;14.89;100.00;102631.13;2072750;28;20275;-67
2022/11/11 00:45:47;;;;;;;22.50;18.80;;;;;;;14.88;100.00;102626.75;2070534;28;20205;-68
2022/11/11 00:50:57;;;;;;;20.47;17.23;;;;;;;14.90;100.00;102627.13;2070235;28;20602;-68
2022/11/11 00:51:58;;;;;;;19.00;16.47;;;;;;;14.95;100.00;102628.66;2069748;28;20447;-68
2022/11/11 00:52:58;;;;;;;18.30;16.40;;;;;;;14.94;100.00;102613.91;2070611;28;20516;-68
2022/11/11 00:53:59;;;;;;;20.83;17.10;;;;;;;14.99;100.00;102621.03;2069497;28;20197;-67
2022/11/11 00:54:59;;;;;;;19.37;17.23;;;;;;;15.00;100.00;102622.63;2070066;28;20288;-67
2022/11/11 00:56:00;;;;;;;19.63;16.80;;;;;;;15.04;100.00;102631.75;2071072;28;20254;-68
2022/11/11 00:57:00;;;;;;;18.97;16.07;;;;;;;15.08;100.00;102624.16;2071570;28;20190;-67
2022/11/11 00:58:00;;;;;;;19.47;16.40;;;;;;;15.03;100.00;102625.41;2070251;28;20283;-68
2022/11/11 00:59:05;;;;;;;18.20;16.23;;;;;;;14.75;100.00;102583.03;2070337;28;20224;-67
2022/11/11 01:00:07;;;;;;;20.67;17.13;;;;;;;15.07;100.00;102614.19;2070434;28;20202;-68
2022/11/11 01:01:07;;;;;;;18.70;15.47;;;;;;;15.11;100.00;102610.13;2069228;28;20543;-68
2022/11/11 01:02:07;;;;;;;17.17;15.17;;;;;;;15.08;100.00;102616.56;2069836;28;20501;-68
2022/11/11 01:03:08;;;;;;;17.23;14.57;;;;;;;15.08;100.00;102612.97;2072619;28;20204;-68
2022/11/11 01:04:09;;;;;;;17.90;15.00;;;;;;;15.13;100.00;102612.50;2070654;28;20204;-68
2022/11/11 01:05:09;;;;;;;16.73;14.20;;;;;;;15.09;100.00;102612.56;2070944;28;20717;-68
2022/11/11 01:06:13;;;;;;;16.20;13.70;;;;;;;15.12;100.00;102613.72;2070789;28;20278;-68
2022/11/11 01:07:13;;;;;;;16.57;13.70;;;;;;;15.10;100.00;102616.13;2070656;28;20267;-68
2022/11/11 01:08:14;;;;;;;16.83;14.13;;;;;;;15.14;100.00;102614.91;2070556;28;20529;-68
2022/11/11 01:09:14;;;;;;;14.63;13.00;;;;;;;15.15;100.00;102616.47;2072756;28;20209;-68
2022/11/11 01:10:36;;;;;;;14.90;13.20;;;;;;;15.12;100.00;102610.94;2070964;28;20197;-68
2022/11/11 01:11:36;;;;;;;15.00;13.40;;;;;;;15.15;100.00;102612.88;2068489;28;20212;-68
2022/11/11 01:13:33;;;;;;;15.87;12.87;;;;;;;15.18;100.00;102601.69;2069322;28;20469;-68
2022/11/11 01:14:33;;;;;;;14.30;12.23;;;;;;;15.16;100.00;102600.53;2069572;28;20674;-68
2022/11/11 01:15:33;;;;;;;17.73;13.27;;;;;;;15.17;100.00;102594.50;2069517;28;20905;-68
2022/11/11 01:16:34;;;;;;;14.83;12.47;;;;;;;15.22;100.00;102602.41;2069974;28;20184;-67
2022/11/11 01:17:34;;;;;;;14.13;12.13;;;;;;;15.22;100.00;102596.84;2069728;28;20214;-68
2022/11/11 01:18:35;;;;;;;13.73;12.23;;;;;;;15.28;100.00;102594.38;2072427;28;20195;-68
2022/11/11 01:19:35;;;;;;;15.33;12.47;;;;;;;15.25;100.00;102593.22;2070528;28;20197;-68
2022/11/11 01:20:37;;;;;;;16.07;12.30;;;;;;;15.30;100.00;102592.75;2069830;28;20192;-68
2022/11/11 01:21:37;;;;;;;15.53;12.53;;;;;;;15.09;100.00;102564.28;2069399;28;20211;-68
2022/11/11 01:22:38;;;;;;;14.40;12.63;;;;;;;15.35;100.00;102586.75;2069299;28;20512;-68
2022/11/11 01:23:40;;;;;;;13.80;12.30;;;;;;;15.39;100.00;102581.09;2070727;28;20201;-68
2022/11/11 01:24:40;;;;;;;13.53;12.03;;;;;;;15.40;100.00;102588.28;2072350;28;20358;-68
2022/11/11 01:25:41;;;;;;;13.93;11.40;;;;;;;15.38;100.00;102577.50;2070315;28;20495;-68
2022/11/11 01:26:41;;;;;;;13.17;11.43;;;;;;;15.36;100.00;102576.38;2069762;28;20196;-67
2022/11/11 01:27:42;;;;;;;13.90;12.17;;;;;;;15.30;100.00;102573.22;2070386;28;20192;-67
2022/11/11 01:28:43;;;;;;;12.90;11.07;;;;;;;14.76;100.00;102495.28;2069983;28;20180;-68
2022/11/11 01:29:44;;;;;;;13.57;11.30;;;;;;;15.03;100.00;102546.41;2070545;28;20272;-68
2022/11/11 01:30:44;;;;;;;12.80;11.50;;;;;;;15.24;100.00;102571.28;2072013;28;20950;-68
2022/11/11 01:31:45;;;;;;;13.23;11.53;;;;;;;15.21;100.00;102575.72;2069805;28;20242;-68
2022/11/11 01:32:45;;;;;;;13.83;11.57;;;;;;;15.15;100.00;102588.56;2069756;28;20215;-67
2022/11/11 01:33:46;;;;;;;13.47;10.83;;;;;;;14.89;100.00;102541.78;2070279;28;20197;-67
2022/11/11 01:34:46;;;;;;;13.53;10.93;;;;;;;15.21;100.00;102583.31;2070016;28;20293;-68
2022/11/11 01:35:47;;;;;;;11.33;10.13;;;;;;;15.24;100.00;102579.66;2070257;28;20204;-67
2022/11/11 01:36:47;;;;;;;12.47;10.70;;;;;;;15.20;100.00;102581.69;2072007;28;20681;-67
2022/11/11 01:37:47;;;;;;;12.20;9.40;;;;;;;15.17;100.00;102583.31;2070020;28;20635;-68
2022/11/11 01:38:53;;;;;;;12.10;10.13;;;;;;;15.17;100.00;102583.31;2070000;28;20205;-67
2022/11/11 01:39:53;;;;;;;11.43;10.23;;;;;;;15.15;100.00;102580.16;2070255;28;20229;-67
2022/11/11 01:40:54;;;;;;;11.07;9.83;;;;;;;15.13;100.00;102581.78;2069880;28;20447;-67
2022/11/11 01:41:54;;;;;;;13.20;10.13;;;;;;;15.15;100.00;102579.38;2069399;28;20250;-67
2022/11/11 01:43:03;;;;;;;12.27;10.07;;;;;;;15.17;100.00;102591.72;2072277;28;20235;-67
2022/11/11 01:44:10;;;;;;;10.73;9.20;;;;;;;15.18;100.00;102575.75;2071905;28;20231;-67
2022/11/11 01:45:59;;;;;;;11.67;9.77;;;;;;;15.17;100.00;102590.94;2069823;28;20448;-67
2022/11/11 01:47:03;;;;;;;10.77;9.37;;;;;;;15.08;100.00;102579.47;2068846;28;20455;-67
2022/11/11 01:49:33;;;;;;;10.87;9.40;;;;;;;15.05;100.00;102586.66;2069693;28;20433;-67
2022/11/11 01:50:33;;;;;;;11.23;9.17;;;;;;;14.97;100.00;102587.94;2069095;28;20475;-67
2022/11/11 01:51:44;;;;;;;10.53;8.63;;;;;;;14.95;100.00;102597.94;2069611;28;20475;-67
2022/11/11 01:52:44;;;;;;;12.10;9.97;;;;;;;14.91;100.00;102595.19;2069771;28;20195;-67
2022/11/11 01:53:51;;;;;;;12.13;9.23;;;;;;;14.40;100.00;102531.13;2071486;28;20460;-67
2022/11/11 01:54:58;;;;;;;10.87;9.03;;;;;;;14.74;100.00;102587.00;2069925;28;20222;-67
2022/11/11 01:56:01;;;;;;;10.50;9.40;;;;;;;14.73;100.00;102594.59;2070193;28;20479;-67
2022/11/11 01:57:09;;;;;;;11.30;9.53;;;;;;;14.75;100.00;102605.34;2070457;28;20441;-67
2022/11/11 01:58:14;;;;;;;12.20;10.00;;;;;;;14.70;100.00;102600.22;2069518;28;20451;-67
2022/11/11 01:59:16;;;;;;;12.00;9.60;;;;;;;14.77;100.00;102598.16;2069210;28;20558;-67
2022/11/11 02:00:18;;;;;;;13.63;9.70;;;;;;;14.65;100.00;102586.72;2070111;28;20470;-67
2022/11/11 02:01:18;;;;;;;13.83;9.23;;;;;;;14.68;100.00;102597.84;2069778;28;20820;-67
2022/11/11 02:02:45;;;;;;;11.57;9.50;;;;;;;14.68;100.00;102599.81;2071435;28;20493;-67
2022/11/11 02:06:30;;;;;;;13.37;9.47;;;;;;;14.57;100.00;102593.56;2069907;28;20455;-67
2022/11/11 02:07:32;;;;;;;12.67;9.37;;;;;;;14.56;100.00;102598.31;2068865;28;20441;-67
2022/11/11 02:08:36;;;;;;;11.57;9.30;;;;;;;14.58;100.00;102595.94;2069325;28;20438;-67
2022/11/11 02:09:41;;;;;;;11.20;9.30;;;;;;;14.59;100.00;102594.72;2072248;28;20462;-67
2022/11/11 02:10:44;;;;;;;11.63;9.63;;;;;;;14.57;100.00;102601.91;2069733;28;20430;-67
2022/11/11 02:14:38;;;;;;;10.93;9.57;;;;;;;14.62;100.00;102585.53;2071653;28;20400;-67
2022/11/11 02:15:39;;;;;;;12.10;10.03;;;;;;;14.64;100.00;102583.13;2071644;28;20481;-68
2022/11/11 02:16:40;;;;;;;12.70;9.20;;;;;;;14.65;100.00;102589.50;2070157;28;20450;-67
2022/11/11 02:17:40;;;;;;;13.73;9.80;;;;;;;14.67;100.00;102599.03;2069799;28;20454;-67
2022/11/11 02:18:42;;;;;;;13.47;9.07;;;;;;;14.69;100.00;102601.41;2069936;28;20231;-67
2022/11/11 02:19:50;;;;;;;11.13;9.03;;;;;;;14.54;100.00;102605.53;2070224;28;20187;-67
2022/11/11 02:20:51;;;;;;;13.63;9.20;;;;;;;14.47;100.00;102603.59;2069639;28;20465;-67
2022/11/11 02:21:59;;;;;;;11.87;9.20;;;;;;;14.51;100.00;102598.75;2069686;28;20433;-67
2022/11/11 02:23:11;;;;;;;11.43;10.23;;;;;;;14.49;100.00;102608.78;2071134;28;20283;-67
2022/11/11 02:24:17;;;;;;;11.93;10.13;;;;;;;14.47;100.00;102611.97;2071211;28;20431;-67
2022/11/11 02:25:22;;;;;;;11.37;9.97;;;;;;;14.47;100.00;102616.75;2071637;28;20434;-67
2022/11/11 02:26:23;;;;;;;12.43;10.47;;;;;;;14.45;100.00;102619.16;2069977;28;20951;-68
2022/11/11 02:27:28;;;;;;;14.10;9.93;;;;;;;14.38;100.00;102614.44;2070595;28;20453;-67
2022/11/11 02:28:31;;;;;;;11.30;8.83;;;;;;;14.30;100.00;102620.47;2070049;28;20508;-67
2022/11/11 02:29:34;;;;;;;11.23;9.20;;;;;;;14.30;100.00;102621.25;2069967;28;20453;-67
2022/11/11 02:30:34;;;;;;;11.63;10.07;;;;;;;14.36;100.00;102621.63;2068865;28;20433;-67
2022/11/11 02:31:35;;;;;;;11.33;9.33;;;;;;;14.35;100.00;102623.59;2070007;28;20437;-67
2022/11/11 02:32:35;;;;;;;11.47;9.37;;;;;;;14.35;100.00;102628.41;2069961;28;20269;-67
2022/11/11 02:33:36;;;;;;;10.90;9.23;;;;;;;14.37;100.00;102631.56;2069224;28;20221;-67
2022/11/11 02:34:36;;;;;;;10.07;9.03;;;;;;;14.37;100.00;102631.56;2070152;28;20219;-67
2022/11/11 02:35:42;;;;;;;11.50;9.17;;;;;;;14.31;100.00;102628.44;2070265;28;20648;-67
2022/11/11 02:36:43;;;;;;;10.63;9.27;;;;;;;14.27;100.00;102630.47;2069644;28;20188;-68
2022/11/11 02:37:47;;;;;;;11.23;9.03;;;;;;;14.35;100.00;102640.34;2069395;28;20433;-67
2022/11/11 02:38:48;;;;;;;10.93;9.07;;;;;;;13.96;100.00;102611.13;2071885;28;20437;-67
2022/11/11 02:39:51;;;;;;;13.30;8.77;;;;;;;14.23;100.00;102640.03;2070081;28;20550;-67
2022/11/11 02:42:14;;;;;;;12.97;9.27;;;;;;;14.27;100.00;102643.59;2068478;28;20434;-67
2022/11/11 02:43:15;;;;;;;11.37;8.97;;;;;;;14.26;100.00;102644.81;2069583;28;20946;-67
2022/11/11 02:44:15;;;;;;;12.10;9.33;;;;;;;13.51;100.00;102525.81;2069833;28;20869;-67
2022/11/11 02:45:16;;;;;;;10.53;8.87;;;;;;;14.32;100.00;102651.53;2069647;28;20259;-67
2022/11/11 02:46:16;;;;;;;10.83;9.00;;;;;;;14.31;100.00;102653.56;2069724;28;20186;-67
2022/11/11 02:47:16;;;;;;;11.63;8.60;;;;;;;14.32;100.00;102655.13;2071852;28;20619;-67
2022/11/11 02:48:17;;;;;;;13.20;9.20;;;;;;;13.72;100.00;102556.31;2069676;28;20195;-67
2022/11/11 02:49:18;;;;;;;12.47;9.17;;;;;;;14.30;100.00;102656.75;2070229;28;20202;-67
2022/11/11 02:50:18;;;;;;;11.37;8.80;;;;;;;14.27;100.00;102649.19;2069532;28;20246;-67
2022/11/11 02:51:19;;;;;;;10.63;9.00;;;;;;;13.93;100.00;102603.59;2068842;28;20206;-67
2022/11/11 02:52:19;;;;;;;10.83;9.33;;;;;;;14.24;100.00;102648.00;2076026;28;20203;-67
2022/11/11 02:53:21;;;;;;;11.50;9.47;;;;;;;14.21;100.00;102657.19;2079379;28;20631;-67
2022/11/11 02:54:21;;;;;;;12.57;9.37;;;;;;;14.22;100.00;102656.00;2070106;28;20624;-67
2022/11/11 02:55:21;;;;;;;10.23;8.27;;;;;;;14.22;100.00;102656.00;2069470;28;20490;-67
2022/11/11 02:57:41;;;;;;;10.33;8.50;;;;;;;14.16;100.00;102656.78;2068998;28;20208;-67
2022/11/11 02:58:41;;;;;;;11.93;8.73;;;;;;;14.17;100.00;102658.38;2068791;28;20452;-67
2022/11/11 02:59:42;;;;;;;10.50;8.47;;;;;;;14.16;100.00;102660.41;2069621;28;20192;-67
2022/11/11 03:00:42;;;;;;;10.80;9.17;;;;;;;14.17;100.00;102656.41;2071456;28;20213;-67
2022/11/11 03:01:42;;;;;;;10.53;8.70;;;;;;;14.13;100.00;102658.41;2069282;28;20189;-67
2022/11/11 03:02:43;;;;;;;9.43;8.40;;;;;;;14.11;100.00;102658.03;2068949;28;20188;-67
2022/11/11 03:03:43;;;;;;;12.57;9.20;;;;;;;14.14;100.00;102662.78;2069162;28;20189;-67
2022/11/11 03:04:44;;;;;;;11.57;9.40;;;;;;;13.41;100.00;102541.38;2069382;28;20204;-68
2022/11/11 03:05:44;;;;;;;11.70;9.10;;;;;;;14.22;100.00;102669.13;2069736;28;20186;-68
2022/11/11 03:06:45;;;;;;;10.27;8.33;;;;;;;13.23;100.00;102512.03;2071426;28;20209;-67
2022/11/11 03:07:45;;;;;;;11.30;9.10;;;;;;;14.23;100.00;102665.13;2069154;28;20200;-68
2022/11/11 03:08:45;;;;;;;10.33;9.00;;;;;;;14.28;100.00;102659.13;2069326;28;20196;-67
2022/11/11 03:09:46;;;;;;;9.37;8.13;;;;;;;14.34;100.00;102671.47;2069786;28;20277;-68
2022/11/11 03:10:46;;;;;;;11.50;8.57;;;;;;;13.84;100.00;102575.38;2069024;28;20192;-67
2022/11/11 03:11:47;;;;;;;9.90;8.17;;;;;;;14.38;100.00;102664.66;2069234;28;20184;-67
2022/11/11 03:12:47;;;;;;;10.93;8.57;;;;;;;14.39;100.00;102663.44;2071346;28;20205;-67
2022/11/11 03:13:48;;;;;;;10.17;8.30;;;;;;;14.44;100.00;102657.41;2069461;28;20295;-67
2022/11/11 03:14:48;;;;;;;13.03;8.40;;;;;;;14.15;100.00;102602.25;2069746;28;20205;-67
2022/11/11 03:15:48;;;;;;;10.63;8.60;;;;;;;13.88;100.00;102568.56;2069693;28;20276;-67
2022/11/11 03:18:08;;;;;;;8.90;7.97;;;;;;;14.50;100.00;102661.34;2069972;28;20206;-67
2022/11/11 03:19:08;;;;;;;8.57;7.63;;;;;;;14.48;100.00;102668.53;2069054;28;20512;-67
2022/11/11 03:21:33;;;;;;;9.20;7.00;;;;;;;13.95;100.00;102587.25;2068967;28;20177;-67
2022/11/11 03:22:33;;;;;;;9.77;7.43;;;;;;;14.53;100.00;102670.91;2071156;28;20419;-67
2022/11/11 03:23:34;;;;;;;8.50;7.43;;;;;;;14.56;100.00;102672.88;2068928;28;20197;-67
2022/11/11 03:25:53;;;;;;;8.50;7.13;;;;;;;14.19;100.00;102631.69;2069206;28;20203;-67
2022/11/11 03:26:54;;;;;;;7.73;6.70;;;;;;;14.44;100.00;102671.38;2068084;28;20444;-67
2022/11/11 03:27:55;;;;;;;8.73;6.87;;;;;;;14.47;100.00;102673.34;2071657;28;20192;-67
2022/11/11 03:28:56;;;;;;;9.43;6.70;;;;;;;13.84;100.00;102581.72;2069579;28;20196;-67
2022/11/11 03:29:56;;;;;;;8.90;7.37;;;;;;;14.45;100.00;102672.94;2069757;28;20469;-67
2022/11/11 03:30:57;;;;;;;8.90;6.93;;;;;;;14.37;100.00;102665.84;2068792;28;20182;-67
2022/11/11 03:31:58;;;;;;;8.73;6.60;;;;;;;14.43;100.00;102668.97;2070524;28;20538;-67
2022/11/11 03:32:59;;;;;;;8.00;6.40;;;;;;;14.39;100.00;102669.00;2070483;28;20459;-68
2022/11/11 03:34:17;;;;;;;8.87;6.77;;;;;;;14.33;100.00;102678.22;2069759;28;20196;-67
2022/11/11 03:35:17;;;;;;;9.20;6.60;;;;;;;13.81;100.00;102599.28;2068072;28;20440;-67
2022/11/11 03:36:17;;;;;;;7.03;5.90;;;;;;;14.32;100.00;102668.28;2068991;28;20496;-67
2022/11/11 03:38:57;;;;;;;8.93;6.33;;;;;;;14.32;100.00;102666.28;2075733;28;20243;-67
2022/11/11 03:39:57;;;;;;;8.90;6.73;;;;;;;13.65;100.00;102559.97;2076805;28;20938;-67
2022/11/11 03:40:58;;;;;;;7.87;6.50;;;;;;;14.35;100.00;102682.19;2075856;28;20191;-67
2022/11/11 03:41:58;;;;;;;7.37;6.07;;;;;;;14.34;100.00;102663.88;2075483;28;20191;-67
2022/11/11 03:42:59;;;;;;;8.53;6.57;;;;;;;13.82;100.00;102580.53;2076779;28;20203;-67
2022/11/11 03:43:59;;;;;;;7.23;6.30;;;;;;;14.33;100.00;102661.47;2078731;28;20197;-67
2022/11/11 03:45:00;;;;;;;7.77;6.50;;;;;;;14.42;100.00;102679.38;2069028;28;20684;-67
2022/11/11 03:46:03;;;;;;;8.07;6.57;;;;;;;14.45;100.00;102678.53;2070177;28;20710;-67
2022/11/11 03:47:03;;;;;;;7.30;6.20;;;;;;;14.38;100.00;102683.38;2068651;28;20244;-67
2022/11/11 03:48:05;;;;;;;8.07;6.63;;;;;;;14.46;100.00;102679.34;2069536;28;20562;-67
2022/11/11 03:49:05;;;;;;;8.00;6.53;;;;;;;14.50;100.00;102686.47;2069423;28;20179;-67
2022/11/11 03:50:06;;;;;;;8.50;6.33;;;;;;;14.52;100.00;102683.28;2071495;28;20439;-66
2022/11/11 03:51:06;;;;;;;7.67;6.57;;;;;;;14.39;100.00;102665.44;2069153;28;20273;-67
2022/11/11 03:52:07;;;;;;;8.47;6.30;;;;;;;14.48;100.00;102668.53;2069049;28;20294;-67
2022/11/11 03:53:08;;;;;;;7.60;6.53;;;;;;;14.53;100.00;102687.66;2069436;28;20684;-67
2022/11/11 03:54:08;;;;;;;7.43;6.53;;;;;;;14.56;100.00;102686.84;2069657;28;20190;-67
2022/11/11 03:55:09;;;;;;;8.27;6.40;;;;;;;14.57;100.00;102680.84;2069091;28;20187;-67
2022/11/11 03:56:09;;;;;;;8.70;6.60;;;;;;;14.56;100.00;102690.41;2071483;28;20279;-67
2022/11/11 03:58:29;;;;;;;8.90;6.63;;;;;;;14.62;100.00;102687.97;2069560;28;20220;-67
2022/11/11 03:59:29;;;;;;;8.07;6.33;;;;;;;14.63;100.00;102681.19;2068904;28;20439;-67
2022/11/11 04:00:30;;;;;;;7.60;6.80;;;;;;;14.58;100.00;102676.84;2068150;28;20201;-67
2022/11/11 04:10:49;;;;;;;9.97;7.27;;;;;;;14.26;100.00;102706.97;2072442;28;20404;-67
2022/11/11 04:11:50;;;;;;;8.97;7.13;;;;;;;14.14;100.00;102714.97;2070798;28;20527;-67
2022/11/11 04:16:51;;;;;;;12.67;8.07;;;;;;;14.08;100.00;102722.19;2072224;28;20401;-67
2022/11/11 04:17:51;;;;;;;11.07;7.43;;;;;;;14.08;100.00;102716.63;2071410;28;20864;-67
2022/11/11 04:21:42;;;;;;;9.20;7.80;;;;;;;14.01;100.00;102703.50;2070806;28;20527;-67
2022/11/11 04:22:42;;;;;;;10.30;8.00;;;;;;;14.02;100.00;102724.59;2070575;28;20746;-67
2022/11/11 04:23:42;;;;;;;11.00;8.27;;;;;;;13.51;100.00;102645.59;2070670;28;20486;-67
2022/11/11 04:26:02;;;;;;;10.20;9.00;;;;;;;13.96;100.00;102712.28;2071102;28;20275;-67
2022/11/11 04:27:13;;;;;;;10.63;8.93;;;;;;;13.95;100.00;102724.63;2070647;28;21017;-67
2022/11/11 04:29:33;;;;;;;10.10;7.50;;;;;;;13.88;100.00;102724.66;2070983;28;20932;-67
2022/11/11 04:30:34;;;;;;;13.70;8.23;;;;;;;13.55;100.00;102668.66;2070797;28;20439;-67
2022/11/11 04:31:34;;;;;;;10.40;8.50;;;;;;;13.72;100.00;102690.06;2071183;28;20224;-67
2022/11/11 04:32:35;;;;;;;10.63;9.03;;;;;;;13.86;100.00;102720.69;2072074;28;20217;-67
2022/11/11 04:33:35;;;;;;;11.83;8.93;;;;;;;13.90;100.00;102729.81;2071218;28;20221;-67
2022/11/11 04:34:35;;;;;;;12.20;9.57;;;;;;;13.87;100.00;102725.03;2078208;28;20270;-67
2022/11/11 04:35:36;;;;;;;12.70;9.20;;;;;;;13.87;100.00;102717.50;2078610;28;20282;-67
2022/11/11 04:36:36;;;;;;;11.50;9.43;;;;;;;13.83;100.00;102727.84;2069134;28;20264;-67
2022/11/11 04:37:50;;;;;;;11.93;9.80;;;;;;;13.54;100.00;102723.59;2072326;28;20720;-67
2022/11/11 04:41:29;;;;;;;12.57;10.57;;;;;;;13.54;100.00;102745.88;2070040;28;20420;-67
2022/11/11 04:42:31;;;;;;;12.63;10.60;;;;;;;13.56;100.00;102739.88;2070862;28;20423;-67
2022/11/11 04:45:26;;;;;;;13.20;10.70;;;;;;;13.59;100.00;102744.66;2072187;28;20219;-67
2022/11/11 04:46:11;;;;;;;14.40;11.50;;;;;;;13.57;100.00;102750.63;2070612;28;20404;-67
2022/11/11 04:47:11;;;;;;;13.20;10.77;;;;;;;13.58;100.00;102746.63;2072613;28;20424;-67
2022/11/11 04:48:12;;;;;;;14.37;11.47;;;;;;;13.42;100.00;102732.34;2070514;28;20279;-67
2022/11/11 04:49:12;;;;;;;16.07;11.60;;;;;;;13.58;100.00;102762.59;2070352;28;20204;-67
2022/11/11 04:50:13;;;;;;;13.63;11.13;;;;;;;13.58;100.00;102754.22;2070005;28;20256;-67
2022/11/11 04:51:13;;;;;;;18.60;13.57;;;;;;;13.56;100.00;102749.03;2069691;28;20176;-67
2022/11/11 04:52:25;;;;;;;14.47;12.47;;;;;;;12.61;100.00;102603.63;2069854;28;20181;-67
2022/11/11 04:53:26;;;;;;;16.23;13.03;;;;;;;13.41;100.00;102728.00;2070709;28;20229;-67
2022/11/11 04:54:26;;;;;;;17.20;12.97;;;;;;;13.61;100.00;102758.97;2072089;28;20426;-67
2022/11/11 04:56:49;;;;;;;15.70;12.50;;;;;;;13.64;100.00;102763.75;2070178;28;20208;-67
2022/11/11 04:57:49;;;;;;;18.93;14.20;;;;;;;13.53;100.00;102754.63;2070239;28;20539;-67
2022/11/11 04:59:14;;;;;;;18.37;12.37;;;;;;;13.54;100.00;102772.94;2070548;28;20448;-67
2022/11/11 05:00:14;;;;;;;18.60;13.47;;;;;;;13.54;100.00;102779.31;2070901;28;20203;-67
2022/11/11 05:03:14;;;;;;;18.90;14.77;;;;;;;13.45;100.00;102769.75;2068888;28;20482;-67
2022/11/11 05:03:53;;;;;;;19.63;14.27;;;;;;;13.38;100.00;102773.34;2069883;28;20454;-63
2022/11/11 05:04:54;;;;;;;18.83;14.63;;;;;;;13.33;100.00;102775.75;2070423;28;20562;-64
2022/11/11 05:08:55;;;;;;;24.23;17.27;;;;;;;13.29;100.00;102781.34;2069431;28;20438;-65
2022/11/11 05:09:56;;;;;;;23.60;16.90;;;;;;;13.30;100.00;102785.69;2069913;28;20448;-66
2022/11/11 05:10:56;;;;;;;22.37;17.23;;;;;;;13.28;100.00;102788.06;2068925;28;20440;-65
2022/11/11 05:11:56;;;;;;;23.83;18.17;;;;;;;13.24;100.00;102792.06;2067517;28;20208;-64
2022/11/11 05:21:19;;;;;;;23.10;17.67;;;;;;;13.24;100.00;102787.31;2068648;28;20207;-64
2022/11/11 05:21:28;;;;;;;25.20;18.23;;;;;;;13.00;100.00;102802.00;2069275;28;20559;-65
2022/11/11 05:22:36;;;;;;;25.80;18.87;;;;;;;12.95;100.00;102807.94;2072250;28;20424;-64
2022/11/11 05:26:15;;;;;;;28.93;19.20;;;;;;;12.94;100.00;102808.31;2067472;28;20491;-63
2022/11/11 05:27:16;;;;;;;29.63;19.80;;;;;;;12.96;100.00;102806.75;2069276;28;20432;-66
2022/11/11 05:28:16;;;;;;;28.07;20.07;;;;;;;13.00;100.00;102810.34;2069010;28;20241;-65
2022/11/11 05:29:16;;;;;;;26.50;20.53;;;;;;;12.98;100.00;102815.53;2069419;28;20216;-64
2022/11/11 05:30:17;;;;;;;28.20;20.60;;;;;;;13.00;100.00;102810.34;2069874;28;20208;-65
2022/11/11 05:31:17;;;;;;;27.03;19.83;;;;;;;13.06;100.00;102810.78;2069572;28;20684;-65
2022/11/11 05:32:19;;;;;;;25.97;19.90;;;;;;;13.05;100.00;102815.53;2068456;28;20271;-65
2022/11/11 05:33:19;;;;;;;26.47;19.80;;;;;;;13.04;100.00;102819.50;2071448;28;20666;-65
2022/11/11 05:34:20;;;;;;;25.67;19.53;;;;;;;13.04;100.00;102811.16;2068940;28;20812;-66
2022/11/11 05:35:21;;;;;;;29.03;20.83;;;;;;;13.04;100.00;102813.94;2068182;28;20370;-66
2022/11/11 05:36:22;;;;;;;27.77;20.97;;;;;;;13.02;100.00;102818.31;2069452;28;20393;-66
2022/11/11 05:37:22;;;;;;;26.47;19.27;;;;;;;13.03;100.00;102817.94;2069321;28;20188;-66
2022/11/11 05:38:23;;;;;;;27.23;20.47;;;;;;;13.04;100.00;102815.91;2069563;28;20429;-66
2022/11/11 05:39:23;;;;;;;27.27;19.43;;;;;;;13.06;100.00;102814.34;2078975;28;20304;-66
2022/11/11 05:40:24;;;;;;;25.73;19.30;;;;;;;13.09;100.00;102810.75;2077314;28;20190;-66
2022/11/11 05:41:24;;;;;;;28.77;19.60;;;;;;;12.55;100.00;102738.72;2067977;28;20192;-66
2022/11/11 05:42:24;;;;;;;26.13;19.77;;;;;;;13.02;100.00;102810.75;2066815;28;20693;-66
2022/11/11 05:43:25;;;;;;;25.30;18.70;;;;;;;12.91;100.00;102779.28;2069451;28;20185;-66
2022/11/11 05:44:25;;;;;;;28.57;19.57;;;;;;;13.04;100.00;102805.59;2065020;28;20455;-66
2022/11/11 05:45:26;;;;;;;26.03;19.33;;;;;;;13.16;100.00;102818.34;2069562;28;20375;-66
2022/11/11 05:46:26;;;;;;;28.40;19.57;;;;;;;13.18;100.00;102829.84;2067265;28;20215;-66
2022/11/11 05:47:27;;;;;;;28.03;19.80;;;;;;;13.23;100.00;102821.88;2067052;28;20741;-67
2022/11/11 05:48:27;;;;;;;26.47;20.70;;;;;;;13.25;100.00;102832.63;2064083;28;20205;-67
2022/11/11 05:49:28;;;;;;;25.17;19.43;;;;;;;13.25;100.00;102821.50;2067779;28;20250;-67
2022/11/11 05:50:28;;;;;;;27.03;20.23;;;;;;;13.21;100.00;102829.84;2068677;28;20340;-67
2022/11/11 05:51:29;;;;;;;28.30;21.27;;;;;;;13.24;100.00;102831.03;2070380;28;20212;-67